Time;durP1;ratioP1;P1;durP2;ratioP2;P2;SDS_P1;SDS_P2;PMS_P1;PMS_P2;Temp;Humidity;BMP_temperature;BMP_pressure;BME280_temperature;BME280_humidity;BME280_pressure;Samples;Min_cycle;Max_cycle;Signal;HPM_P1;HPM_P2
2022/09/11 00:00:20;;;;;;;8.63;5.67;;;;;;;24.69;50.63;94925.41;6159352;28;102784;-75
2022/09/11 00:03:24;;;;;;;5.97;5.40;;;;;;;24.61;50.44;94923.53;6162674;28;103152;-76
2022/09/11 00:06:27;;;;;;;6.40;4.70;;;;;;;24.52;50.13;94922.81;6157132;28;103552;-77
2022/09/11 00:09:32;;;;;;;5.40;4.60;;;;;;;24.47;50.04;94919.22;6164564;28;105625;-78
2022/09/11 00:12:35;;;;;;;4.90;4.40;;;;;;;24.42;50.14;94923.97;6163816;28;103561;-79
2022/09/11 00:15:41;;;;;;;4.60;4.30;;;;;;;24.43;50.10;94920.19;6161023;28;102870;-78
2022/09/11 00:18:45;;;;;;;4.80;4.40;;;;;;;24.42;50.25;94923.97;6160020;28;103396;-76
2022/09/11 00:21:49;;;;;;;4.87;4.47;;;;;;;24.41;50.33;94925.88;6164410;28;104055;-78
2022/09/11 00:24:53;;;;;;;5.10;4.70;;;;;;;24.38;50.29;94920.38;6164620;28;103412;-78
2022/09/11 00:27:56;;;;;;;5.00;4.60;;;;;;;24.34;50.10;94922.91;6155925;28;103784;-76
2022/09/11 00:31:02;;;;;;;6.47;5.87;;;;;;;24.40;50.22;94926.97;6164371;28;104756;-78
2022/09/11 00:34:06;;;;;;;5.23;4.77;;;;;;;24.38;50.37;94928.41;6163188;28;103508;-76
2022/09/11 00:37:09;;;;;;;5.07;4.67;;;;;;;24.33;50.26;94923.22;6163725;28;103428;-77
2022/09/11 00:40:14;;;;;;;5.20;4.80;;;;;;;24.35;50.44;94924.47;6155724;28;103052;-77
2022/09/11 00:43:17;;;;;;;5.83;5.33;;;;;;;24.43;50.58;94929.00;6163615;28;103119;-77
2022/09/11 00:46:24;;;;;;;6.17;5.37;;;;;;;24.52;49.84;94922.81;6163813;28;103087;-77
2022/09/11 00:49:32;;;;;;;6.23;5.47;;;;;;;24.55;50.04;94922.19;6159671;28;105750;-78
2022/09/11 00:52:41;;;;;;;6.77;6.27;;;;;;;24.56;50.16;94918.38;6159020;28;103332;-77
2022/09/11 00:55:50;;;;;;;7.50;6.90;;;;;;;24.56;49.79;94919.19;6161041;28;103767;-78
2022/09/11 00:58:55;;;;;;;7.30;6.70;;;;;;;24.52;49.73;94914.78;6163325;28;103424;-77
2022/09/11 01:01:59;;;;;;;7.60;7.00;;;;;;;24.57;49.36;94914.59;6155187;28;103376;-78
2022/09/11 01:05:04;;;;;;;7.10;6.57;;;;;;;24.54;48.93;94915.25;6162644;28;102856;-77
2022/09/11 01:08:09;;;;;;;6.67;6.20;;;;;;;24.48;49.23;94912.75;6163084;28;104077;-77
2022/09/11 01:11:32;;;;;;;6.63;6.03;;;;;;;24.51;49.24;94916.66;6163479;28;103161;-77
2022/09/11 01:14:44;;;;;;;7.17;6.67;;;;;;;24.55;49.42;94922.19;6156308;28;105467;-76
2022/09/11 01:17:56;;;;;;;6.97;6.40;;;;;;;24.57;49.52;94922.63;6162512;28;103556;-76
2022/09/11 01:21:28;;;;;;;6.90;6.30;;;;;;;24.55;49.40;94924.84;6163761;28;106408;-78
2022/09/11 01:24:56;;;;;;;6.43;5.90;;;;;;;24.53;49.54;94929.72;6116211;28;103214;-75
2022/09/11 01:28:08;;;;;;;6.87;6.27;;;;;;;24.53;49.43;94929.72;6164359;28;106279;-76
2022/09/11 01:31:14;;;;;;;6.67;6.13;;;;;;;24.55;49.48;94927.53;6162862;28;103265;-77
2022/09/11 01:34:22;;;;;;;7.03;6.43;;;;;;;24.52;49.43;94928.16;6162869;28;103201;-77
2022/09/11 01:37:35;;;;;;;6.40;5.90;;;;;;;24.53;49.41;94916.34;6143271;28;103271;-76
2022/09/11 01:40:44;;;;;;;7.00;6.50;;;;;;;24.54;49.35;94920.63;6163178;28;102798;-77
2022/09/11 01:43:55;;;;;;;6.70;6.10;;;;;;;24.50;49.44;94926.59;6162747;28;103108;-78
2022/09/11 01:46:59;;;;;;;6.40;6.00;;;;;;;24.54;49.18;94918.72;6156304;28;103008;-78
2022/09/11 01:50:05;;;;;;;6.57;6.07;;;;;;;24.54;49.19;94912.59;6163124;28;104023;-76
2022/09/11 01:53:12;;;;;;;7.30;6.80;;;;;;;24.55;49.33;94908.81;6162243;28;103163;-76
2022/09/11 01:56:22;;;;;;;7.17;6.57;;;;;;;24.57;49.33;94909.25;6162599;28;103553;-74
2022/09/11 01:59:32;;;;;;;6.07;5.67;;;;;;;24.57;49.29;94907.38;6155440;28;103072;-76
2022/09/11 02:02:38;;;;;;;7.00;6.50;;;;;;;24.53;49.29;94903.78;6161691;28;103372;-75
2022/09/11 02:05:46;;;;;;;6.13;5.73;;;;;;;24.52;49.56;94907.53;6162264;28;103217;-76
2022/09/11 02:08:53;;;;;;;6.00;5.50;;;;;;;24.37;49.75;94908.13;6158240;28;103195;-75
2022/09/11 02:12:02;;;;;;;5.53;5.03;;;;;;;24.45;49.81;94904.59;6158275;28;102877;-75
2022/09/11 02:15:08;;;;;;;6.23;5.63;;;;;;;24.49;49.56;94902.84;6162761;28;104837;-75
2022/09/11 02:18:18;;;;;;;5.30;4.90;;;;;;;24.36;49.21;94898.50;6161901;28;104005;-74
2022/09/11 02:21:21;;;;;;;4.93;4.53;;;;;;;24.38;49.34;94897.09;6154094;28;103353;-74
2022/09/11 02:24:25;;;;;;;5.90;5.50;;;;;;;24.43;49.25;94896.13;6162078;28;104132;-76
2022/09/11 02:27:30;;;;;;;5.27;4.87;;;;;;;24.43;49.47;94904.94;6162051;28;103295;-76
2022/09/11 02:30:34;;;;;;;5.10;4.70;;;;;;;24.43;48.88;94901.47;6161783;28;103161;-75
2022/09/11 02:33:38;;;;;;;5.73;5.23;;;;;;;24.38;49.52;94901.66;6154707;28;103507;-75
2022/09/11 02:37:02;;;;;;;5.60;5.10;;;;;;;24.31;49.12;94899.47;6162304;28;103967;-75
2022/09/11 02:40:19;;;;;;;5.00;4.70;;;;;;;24.39;49.13;94900.56;6160592;28;103246;-75
2022/09/11 02:43:43;;;;;;;5.50;5.10;;;;;;;24.39;49.18;94906.69;6156824;28;104120;-77
2022/09/11 02:46:59;;;;;;;5.23;4.67;;;;;;;24.37;49.19;94895.53;6164990;28;104371;-75
2022/09/11 02:50:11;;;;;;;5.93;5.03;;;;;;;24.30;49.22;94903.25;6166165;28;103246;-73
2022/09/11 02:53:25;;;;;;;5.23;4.83;;;;;;;24.29;49.05;94904.38;6165345;28;104056;-73
2022/09/11 02:56:35;;;;;;;5.20;4.73;;;;;;;24.32;48.87;94898.38;6157828;28;104495;-75
2022/09/11 02:59:42;;;;;;;5.00;4.60;;;;;;;24.27;48.92;94903.91;6157068;28;103529;-73
2022/09/11 03:02:47;;;;;;;5.10;4.70;;;;;;;24.28;48.90;94899.34;6162211;28;103870;-76
2022/09/11 03:05:50;;;;;;;5.73;5.23;;;;;;;24.30;48.83;94897.91;6162523;28;103593;-77
2022/09/11 03:08:54;;;;;;;5.10;4.80;;;;;;;24.32;48.46;94895.69;6161967;28;103346;-74
2022/09/11 03:11:57;;;;;;;4.90;4.50;;;;;;;24.30;48.86;94905.16;6164919;28;103274;-74
2022/09/11 03:15:01;;;;;;;5.53;5.10;;;;;;;24.30;48.68;94897.91;6165998;28;103113;-75
2022/09/11 03:18:06;;;;;;;4.77;4.47;;;;;;;24.32;48.17;94911.75;6158178;28;103301;-74
2022/09/11 03:21:10;;;;;;;5.20;4.70;;;;;;;24.27;48.43;94905.81;6165749;28;103263;-75
2022/09/11 03:24:14;;;;;;;4.60;4.30;;;;;;;24.30;48.57;94919.31;6165532;28;103168;-75
2022/09/11 03:27:17;;;;;;;4.57;4.27;;;;;;;24.35;48.61;94921.00;6165656;28;103257;-76
2022/09/11 03:30:20;;;;;;;4.90;4.50;;;;;;;24.28;48.19;94918.84;6157917;28;103647;-75
2022/09/11 03:33:25;;;;;;;5.47;5.10;;;;;;;24.15;48.25;94919.84;6165262;28;104220;-75
2022/09/11 03:36:28;;;;;;;5.60;5.10;;;;;;;24.13;48.15;94927.41;6165414;28;103644;-76
2022/09/11 03:39:31;;;;;;;7.73;6.03;;;;;;;24.16;48.31;94932.09;6163151;28;104115;-75
2022/09/11 03:42:34;;;;;;;6.17;5.57;;;;;;;24.15;48.23;94925.97;6159891;28;103479;-76
2022/09/11 03:45:38;;;;;;;10.90;10.00;;;;;;;24.24;48.29;94928.63;6165636;28;104195;-75
2022/09/11 03:48:44;;;;;;;13.43;12.20;;;;;;;24.25;48.01;94940.09;6165282;28;103059;-75
2022/09/11 03:51:48;;;;;;;12.50;11.50;;;;;;;24.27;47.95;94927.97;6156975;28;102995;-75
2022/09/11 03:54:51;;;;;;;11.30;10.30;;;;;;;24.29;48.12;94944.47;6164373;28;103713;-75
2022/09/11 03:57:54;;;;;;;9.80;9.00;;;;;;;24.32;48.07;94951.06;6165112;28;102882;-74
2022/09/11 04:00:57;;;;;;;9.33;8.53;;;;;;;24.28;47.97;94942.91;6163028;28;103289;-75
2022/09/11 04:04:03;;;;;;;8.57;7.77;;;;;;;24.31;48.24;94939.59;6157875;28;103978;-76
2022/09/11 04:07:06;;;;;;;7.70;7.20;;;;;;;24.31;47.74;94942.25;6164536;28;103234;-75
2022/09/11 04:10:09;;;;;;;6.73;6.30;;;;;;;24.29;48.12;94949.84;6164012;28;103572;-75
2022/09/11 04:13:13;;;;;;;7.00;6.43;;;;;;;24.27;47.77;94933.31;6163814;28;103544;-75
2022/09/11 04:16:18;;;;;;;9.60;6.73;;;;;;;24.19;47.91;94936.81;6157196;28;102903;-75
2022/09/11 04:19:22;;;;;;;8.20;7.50;;;;;;;24.21;47.66;94931.94;6164007;28;103333;-76
2022/09/11 04:22:26;;;;;;;23.13;20.90;;;;;;;24.18;47.88;94936.03;6164687;28;104495;-74
2022/09/11 04:25:31;;;;;;;13.97;12.67;;;;;;;24.21;48.29;94945.31;6162306;28;103674;-77
2022/09/11 04:28:36;;;;;;;11.13;10.23;;;;;;;24.30;47.44;94943.38;6163833;28;103105;-75
2022/09/11 04:31:39;;;;;;;9.53;8.63;;;;;;;24.34;47.72;94935.47;6166237;28;102671;-77
2022/09/11 04:34:44;;;;;;;9.50;8.70;;;;;;;24.38;47.64;94944.47;6164994;28;103228;-76
2022/09/11 04:37:48;;;;;;;8.47;7.67;;;;;;;24.27;47.87;94944.03;6158598;28;103227;-76
2022/09/11 04:40:51;;;;;;;9.77;6.73;;;;;;;24.19;47.53;94937.63;6164268;28;103091;-77
2022/09/11 04:43:56;;;;;;;7.07;6.33;;;;;;;24.31;47.71;94938.81;6164004;28;103500;-77
2022/09/11 04:47:05;;;;;;;7.07;6.37;;;;;;;24.34;47.62;94948.84;6151936;28;103201;-78
2022/09/11 04:50:11;;;;;;;8.83;8.13;;;;;;;24.34;48.12;94938.94;6158065;28;104363;-74
2022/09/11 04:53:15;;;;;;;7.83;7.20;;;;;;;24.41;47.93;94941.13;6164289;28;104944;-76
2022/09/11 04:56:20;;;;;;;7.33;6.63;;;;;;;24.43;48.03;94947.72;6163214;28;103149;-77
2022/09/11 04:59:24;;;;;;;10.50;7.70;;;;;;;24.38;48.02;94949.81;6158732;28;102941;-78
2022/09/11 05:02:27;;;;;;;6.90;6.40;;;;;;;24.45;47.97;94952.75;6157941;28;103457;-74
2022/09/11 05:05:31;;;;;;;8.23;7.50;;;;;;;24.48;48.11;94944.06;6162937;28;103741;-76
2022/09/11 05:08:35;;;;;;;15.00;7.40;;;;;;;24.47;47.28;94945.97;6161778;28;103434;-76
2022/09/11 05:11:38;;;;;;;8.10;5.90;;;;;;;24.16;47.34;94954.28;6155093;28;105132;-74
2022/09/11 05:14:41;;;;;;;10.97;5.67;;;;;;;23.90;47.67;94951.69;6161443;28;104440;-74
2022/09/11 05:17:45;;;;;;;6.10;5.30;;;;;;;23.73;47.86;94950.94;6162449;28;103575;-76
2022/09/11 05:20:59;;;;;;;8.27;5.60;;;;;;;23.55;48.42;94950.19;6162057;28;103636;-74
2022/09/11 05:24:03;;;;;;;6.17;5.67;;;;;;;23.82;48.07;94954.38;6151896;28;103235;-75
2022/09/11 05:27:07;;;;;;;8.47;6.63;;;;;;;23.84;48.07;94952.94;6161696;28;103446;-75
2022/09/11 05:30:11;;;;;;;6.23;5.60;;;;;;;23.25;49.24;94951.94;6162154;28;103127;-76
2022/09/11 05:33:14;;;;;;;6.10;5.53;;;;;;;23.20;49.83;94954.75;6159819;28;103163;-75
2022/09/11 05:36:19;;;;;;;6.10;5.60;;;;;;;23.32;49.91;94951.47;6160235;28;105116;-76
2022/09/11 05:39:22;;;;;;;8.70;5.30;;;;;;;23.55;49.01;94950.19;6163673;28;103948;-75
2022/09/11 05:42:27;;;;;;;7.80;5.30;;;;;;;23.59;49.33;94932.44;6163955;28;103229;-75
2022/09/11 05:45:30;;;;;;;7.30;5.70;;;;;;;23.70;50.16;94940.91;6155367;28;103133;-77
2022/09/11 05:48:35;;;;;;;6.07;5.47;;;;;;;24.00;51.03;94945.22;6163826;28;103139;-77
2022/09/11 05:51:46;;;;;;;6.73;6.07;;;;;;;24.37;50.11;94942.88;6162493;28;105071;-77
2022/09/11 05:54:50;;;;;;;10.93;9.73;;;;;;;24.27;49.93;94944.03;6163516;28;103077;-77
2022/09/11 05:57:53;;;;;;;12.03;8.93;;;;;;;24.20;49.76;94949.09;6155306;28;103105;-76
2022/09/11 06:01:03;;;;;;;10.17;8.60;;;;;;;24.07;50.23;94952.75;6162772;28;102756;-74
2022/09/11 06:04:09;;;;;;;8.60;7.80;;;;;;;23.95;50.12;94947.25;6163060;28;102847;-74
2022/09/11 06:07:14;;;;;;;9.50;8.60;;;;;;;24.09;50.67;94950.56;6160694;28;103380;-76
2022/09/11 06:10:17;;;;;;;9.60;8.80;;;;;;;24.28;50.31;94945.59;6159013;28;104785;-76
2022/09/11 06:13:21;;;;;;;9.87;8.97;;;;;;;24.23;51.61;94945.78;6162662;28;104065;-76
2022/09/11 06:16:25;;;;;;;9.67;8.67;;;;;;;24.06;50.84;94953.88;6162379;28;103288;-76
2022/09/11 06:19:28;;;;;;;10.00;9.00;;;;;;;24.08;51.18;94946.31;6154377;28;104098;-76
2022/09/11 06:22:36;;;;;;;10.20;9.30;;;;;;;24.10;51.13;94952.13;6162043;28;107126;-75
2022/09/11 06:25:39;;;;;;;10.23;9.43;;;;;;;24.23;50.74;94953.81;6163084;28;105411;-75
2022/09/11 06:28:42;;;;;;;11.63;10.40;;;;;;;24.37;50.71;94953.59;6163161;28;103657;-75
2022/09/11 06:31:47;;;;;;;11.10;10.10;;;;;;;24.46;51.58;94957.78;6157337;28;103376;-76
2022/09/11 06:34:57;;;;;;;11.23;10.13;;;;;;;24.58;51.88;94954.41;6163314;28;103332;-76
2022/09/11 06:38:16;;;;;;;11.33;10.23;;;;;;;24.61;51.02;94953.75;6149803;28;102945;-73
2022/09/11 06:41:19;;;;;;;18.30;10.77;;;;;;;24.73;50.74;94958.44;6158065;28;103436;-75
2022/09/11 06:44:26;;;;;;;15.53;10.47;;;;;;;24.91;51.82;94965.25;6157696;28;103652;-74
2022/09/11 06:47:30;;;;;;;13.63;9.73;;;;;;;24.98;51.06;94968.19;6161609;28;103371;-76
2022/09/11 06:50:39;;;;;;;13.93;10.00;;;;;;;24.97;50.00;94968.50;6164500;28;103179;-77
2022/09/11 06:53:50;;;;;;;11.20;10.07;;;;;;;24.90;49.82;94974.41;6152919;28;103581;-74
2022/09/11 06:56:57;;;;;;;11.53;10.33;;;;;;;24.90;50.25;94958.34;6152662;28;102765;-74
2022/09/11 07:00:20;;;;;;;11.50;10.40;;;;;;;24.90;49.53;94966.38;6165158;28;103095;-73
2022/09/11 07:03:55;;;;;;;10.97;9.97;;;;;;;25.00;49.61;94965.19;6157536;28;102964;-73
2022/09/11 07:07:10;;;;;;;11.50;10.70;;;;;;;25.01;49.47;94964.84;6156870;28;103003;-74
2022/09/11 07:11:11;;;;;;;11.17;10.33;;;;;;;25.00;49.11;94970.53;6163874;28;103269;-75
2022/09/11 07:14:22;;;;;;;11.23;10.33;;;;;;;24.99;49.19;94967.06;6165801;28;103107;-74
2022/09/11 07:18:07;;;;;;;10.33;9.43;;;;;;;24.96;48.69;94969.63;6141410;28;103567;-74
2022/09/11 07:21:23;;;;;;;9.97;9.27;;;;;;;25.04;48.64;94966.13;6162231;28;103324;-73
2022/09/11 07:24:53;;;;;;;15.80;10.40;;;;;;;25.04;48.28;94969.59;6163414;28;103451;-73
2022/09/11 07:28:04;;;;;;;9.60;8.90;;;;;;;25.04;48.02;94966.91;6151112;28;102961;-74
2022/09/11 07:31:21;;;;;;;10.73;8.93;;;;;;;25.03;48.05;94969.88;6163611;28;103042;-72
2022/09/11 07:34:28;;;;;;;10.90;10.00;;;;;;;25.01;48.07;94967.53;6165194;28;102943;-72
2022/09/11 07:37:41;;;;;;;11.07;10.20;;;;;;;25.00;47.65;94960.59;6163835;28;102808;-73
2022/09/11 07:41:11;;;;;;;10.13;9.23;;;;;;;25.16;48.03;94960.81;6138980;28;103693;-72
2022/09/11 07:44:36;;;;;;;9.50;8.70;;;;;;;25.11;47.14;94958.34;6155055;28;102994;-73
2022/09/11 07:47:49;;;;;;;9.20;8.50;;;;;;;25.12;47.06;94953.75;6165415;28;102861;-74
2022/09/11 07:51:06;;;;;;;9.93;9.03;;;;;;;25.21;47.29;94955.28;6157997;28;103296;-73
2022/09/11 07:54:37;;;;;;;10.20;9.40;;;;;;;25.23;46.84;94949.59;6161756;28;103102;-74
2022/09/11 08:01:50;;;;;;;9.57;8.03;;;;;;;25.54;48.05;94939.25;6155268;28;103578;-75
2022/09/11 08:05:33;;;;;;;9.50;8.60;;;;;;;25.49;48.02;94934.09;6164103;28;102806;-75
2022/09/11 08:08:50;;;;;;;9.30;8.50;;;;;;;25.41;47.55;94937.63;6163133;28;103073;-75
2022/09/11 08:12:22;;;;;;;8.60;7.83;;;;;;;25.40;46.62;94937.97;6154857;28;103063;-75
2022/09/11 08:15:38;;;;;;;8.87;7.83;;;;;;;25.43;46.75;94937.31;6162301;28;103075;-77
2022/09/11 08:18:50;;;;;;;8.70;7.97;;;;;;;25.62;46.63;94934.91;6167765;28;102739;-79
2022/09/11 08:21:54;;;;;;;9.63;8.77;;;;;;;25.57;46.32;94929.78;6165151;28;104161;-79
2022/09/11 08:24:58;;;;;;;8.63;7.87;;;;;;;25.58;46.58;94932.13;6158720;28;103036;-78
2022/09/11 08:28:01;;;;;;;9.07;8.30;;;;;;;25.65;46.00;94916.25;6164371;28;103362;-78
2022/09/11 08:31:05;;;;;;;9.83;8.47;;;;;;;25.63;46.78;94921.19;6166685;28;103284;-80
2022/09/11 08:34:11;;;;;;;9.50;8.70;;;;;;;25.60;46.78;94923.75;6166102;28;103125;-79
2022/09/11 08:37:14;;;;;;;8.77;8.07;;;;;;;25.65;47.01;94920.84;6157595;28;103555;-80
2022/09/11 08:40:17;;;;;;;10.20;9.40;;;;;;;25.64;47.09;94917.38;6166875;28;105232;-79
2022/09/11 08:43:25;;;;;;;10.37;9.47;;;;;;;25.71;47.79;94914.19;6166759;28;103081;-79
2022/09/11 08:46:35;;;;;;;12.10;11.10;;;;;;;25.73;48.14;94921.88;6159726;28;105191;-79
2022/09/11 08:49:42;;;;;;;14.40;12.93;;;;;;;25.74;48.35;94910.81;6160883;28;103191;-77
2022/09/11 08:52:47;;;;;;;13.80;12.50;;;;;;;25.79;47.94;94912.50;6164273;28;103340;-79
2022/09/11 08:55:59;;;;;;;14.17;11.90;;;;;;;25.79;47.68;94901.78;6164717;28;103539;-77
2022/09/11 08:59:14;;;;;;;12.20;11.00;;;;;;;25.73;47.81;94903.91;6154937;28;105112;-77
2022/09/11 09:02:31;;;;;;;12.23;11.13;;;;;;;25.73;47.30;94898.53;6145170;28;103119;-78
2022/09/11 09:05:42;;;;;;;12.43;11.43;;;;;;;25.73;47.03;94892.41;6162203;28;103109;-77
2022/09/11 09:08:52;;;;;;;11.80;10.90;;;;;;;25.79;46.64;94896.41;6160343;28;102860;-78
2022/09/11 09:12:04;;;;;;;12.37;11.17;;;;;;;25.80;46.56;94900.66;6159266;28;102913;-77
2022/09/11 09:15:17;;;;;;;12.53;11.30;;;;;;;25.75;46.83;94887.47;6163657;28;103371;-77
2022/09/11 09:18:29;;;;;;;11.80;10.80;;;;;;;25.78;46.58;94882.22;6163435;28;103247;-76
2022/09/11 09:21:38;;;;;;;11.67;10.77;;;;;;;25.83;46.21;94878.53;6151288;28;103333;-77
2022/09/11 09:24:46;;;;;;;10.53;9.80;;;;;;;25.80;46.28;94876.53;6163564;28;103035;-76
2022/09/11 09:27:52;;;;;;;12.63;11.53;;;;;;;25.78;46.26;94870.72;6163214;28;103774;-77
2022/09/11 09:30:58;;;;;;;11.27;10.17;;;;;;;25.85;45.90;94865.59;6163210;28;103594;-76
2022/09/11 09:34:05;;;;;;;11.57;10.57;;;;;;;25.78;45.98;94866.16;6155314;28;103847;-76
2022/09/11 09:37:17;;;;;;;11.80;10.90;;;;;;;25.62;45.64;94865.22;6163025;28;104222;-76
2022/09/11 09:40:24;;;;;;;11.27;10.47;;;;;;;25.63;45.58;94856.84;6164586;28;105931;-77
2022/09/11 09:43:40;;;;;;;11.30;10.50;;;;;;;25.53;44.41;94864.53;6153594;28;102660;-76
2022/09/11 09:46:46;;;;;;;10.73;10.00;;;;;;;25.44;43.82;94853.13;6163133;28;103343;-77
2022/09/11 09:49:55;;;;;;;10.20;9.43;;;;;;;25.42;43.19;94853.47;6150244;28;106610;-77
2022/09/11 09:53:03;;;;;;;11.50;10.60;;;;;;;25.41;43.42;94843.88;6157926;28;103101;-76
2022/09/11 09:56:07;;;;;;;11.43;10.53;;;;;;;25.46;44.12;94848.22;6153814;28;103432;-76
2022/09/11 09:59:17;;;;;;;11.83;10.80;;;;;;;25.45;44.16;94858.16;6158940;28;104699;-79
2022/09/11 10:02:42;;;;;;;12.07;11.20;;;;;;;25.50;43.44;94852.59;6163292;28;103338;-81
2022/09/11 10:05:45;;;;;;;10.73;9.80;;;;;;;25.72;42.55;94856.00;6149879;28;103582;-80
2022/09/11 10:08:56;;;;;;;12.20;11.10;;;;;;;25.85;42.66;94849.50;6159097;28;103431;-79
2022/09/11 10:12:07;;;;;;;10.50;9.60;;;;;;;25.93;42.28;94835.22;6162788;28;103474;-77
2022/09/11 10:15:21;;;;;;;11.00;10.20;;;;;;;25.98;42.32;94832.31;6163173;28;103844;-77
2022/09/11 10:18:34;;;;;;;10.63;9.83;;;;;;;26.00;42.51;94822.06;6155594;28;105002;-76
2022/09/11 10:21:38;;;;;;;10.43;9.63;;;;;;;26.03;42.29;94825.97;6163960;28;103029;-79
2022/09/11 10:24:43;;;;;;;10.73;9.93;;;;;;;26.03;42.27;94828.63;6163155;28;103587;-77
2022/09/11 10:27:55;;;;;;;9.73;9.00;;;;;;;26.01;42.58;94818.25;6162653;28;103041;-79
2022/09/11 10:31:01;;;;;;;9.77;9.07;;;;;;;26.00;42.44;94819.38;6157206;28;103296;-78
2022/09/11 10:34:06;;;;;;;11.07;10.20;;;;;;;26.03;42.67;94823.28;6162885;28;102966;-75
2022/09/11 10:37:24;;;;;;;10.37;9.57;;;;;;;26.02;42.93;94825.16;6162948;28;103880;-79
2022/09/11 10:40:29;;;;;;;10.00;9.30;;;;;;;25.99;42.70;94821.25;6152360;28;103048;-78
2022/09/11 10:43:38;;;;;;;10.30;9.60;;;;;;;25.98;42.60;94819.69;6164081;28;103653;-79
2022/09/11 10:46:42;;;;;;;10.40;9.60;;;;;;;26.00;42.64;94824.72;6163247;28;103373;-78
2022/09/11 10:49:46;;;;;;;9.17;8.57;;;;;;;26.00;42.76;94814.00;6162953;28;103332;-77
2022/09/11 10:53:06;;;;;;;9.57;8.87;;;;;;;25.97;42.24;94810.06;6154521;28;103024;-79
2022/09/11 10:56:10;;;;;;;10.40;9.57;;;;;;;25.98;42.54;94794.75;6162597;28;103323;-77
2022/09/11 10:59:19;;;;;;;9.47;8.63;;;;;;;25.95;42.65;94811.53;6162985;28;103166;-79
2022/09/11 11:02:30;;;;;;;10.30;9.50;;;;;;;25.95;42.76;94795.44;6159895;28;102979;-77
2022/09/11 11:05:44;;;;;;;9.33;8.63;;;;;;;25.96;42.68;94792.41;6144976;28;103138;-81
2022/09/11 11:09:05;;;;;;;10.40;9.40;;;;;;;26.04;42.97;94795.34;6154373;28;103247;-80
2022/09/11 11:12:30;;;;;;;9.87;8.97;;;;;;;26.03;42.52;94793.78;6166916;28;103653;-80
2022/09/11 11:15:50;;;;;;;12.67;8.93;;;;;;;26.05;42.77;94789.66;6157998;28;103924;-82
2022/09/11 11:19:22;;;;;;;9.40;8.60;;;;;;;26.08;42.85;94791.66;6167818;28;106241;-80
2022/09/11 11:22:40;;;;;;;10.13;9.10;;;;;;;26.09;42.88;94793.22;6142692;28;103633;-80
2022/09/11 11:25:53;;;;;;;10.53;9.63;;;;;;;26.11;42.61;94774.91;6150433;28;103706;-79
2022/09/11 11:29:38;;;;;;;10.37;9.33;;;;;;;26.07;42.76;94776.69;6166683;28;103027;-79
2022/09/11 11:33:00;;;;;;;10.03;9.23;;;;;;;26.13;42.49;94766.50;6159192;28;103248;-78
2022/09/11 11:36:07;;;;;;;9.67;9.07;;;;;;;26.08;42.52;94756.81;6152248;28;102978;-79
2022/09/11 11:39:22;;;;;;;9.70;9.00;;;;;;;26.10;42.60;94756.47;6160364;28;104730;-78
2022/09/11 11:42:30;;;;;;;9.77;9.00;;;;;;;26.14;42.32;94754.66;6167690;28;103180;-80
2022/09/11 11:45:39;;;;;;;9.47;8.70;;;;;;;26.06;42.20;94759.03;6166920;28;103218;-81
2022/09/11 11:48:50;;;;;;;9.57;8.87;;;;;;;26.10;42.02;94753.78;6159371;28;103179;-80
2022/09/11 11:52:01;;;;;;;9.33;8.63;;;;;;;26.13;42.21;94753.88;6166404;28;103621;-81
2022/09/11 11:55:15;;;;;;;9.17;8.43;;;;;;;26.07;41.92;94744.50;6166807;28;102606;-80
2022/09/11 11:58:34;;;;;;;9.10;8.40;;;;;;;26.08;42.18;94751.44;6166328;28;103327;-80
2022/09/11 12:01:44;;;;;;;8.87;8.27;;;;;;;26.04;42.46;94747.84;6160677;28;103031;-81
2022/09/11 12:04:54;;;;;;;9.80;8.97;;;;;;;26.05;42.39;94744.06;6166161;28;103045;-80
2022/09/11 12:07:58;;;;;;;8.93;8.33;;;;;;;26.07;41.88;94749.88;6166233;28;102998;-80
2022/09/11 12:11:06;;;;;;;9.17;8.47;;;;;;;26.09;42.18;94744.94;6158667;28;103256;-80
2022/09/11 12:14:37;;;;;;;8.67;8.07;;;;;;;26.07;42.45;94746.41;6167880;28;102824;-79
2022/09/11 12:18:05;;;;;;;9.10;8.50;;;;;;;26.03;42.88;94742.81;6165956;28;102980;-81
2022/09/11 12:22:07;;;;;;;9.27;8.63;;;;;;;26.04;42.69;94731.75;6168213;28;102701;-82
2022/09/11 12:26:12;;;;;;;8.87;8.27;;;;;;;26.05;42.69;94727.19;6162945;28;103573;-78
2022/09/11 12:29:58;;;;;;;8.83;8.23;;;;;;;26.09;42.75;94726.19;6157917;28;102823;-78
2022/09/11 12:33:47;;;;;;;8.93;8.33;;;;;;;26.09;42.75;94725.41;6139440;28;103552;-76
2022/09/11 12:37:10;;;;;;;9.67;8.77;;;;;;;26.06;42.88;94724.19;6156410;28;103692;-77
2022/09/11 12:40:28;;;;;;;9.20;8.60;;;;;;;26.05;42.66;94714.56;6155178;28;103304;-77
2022/09/11 12:43:49;;;;;;;8.90;8.30;;;;;;;26.03;42.80;94716.78;6164631;28;104378;-78
2022/09/11 12:47:22;;;;;;;8.60;8.00;;;;;;;25.93;41.30;94711.88;6160462;28;103308;-75
2022/09/11 12:50:28;;;;;;;9.97;8.90;;;;;;;25.75;41.07;94706.00;6148106;28;102901;-79
2022/09/11 12:53:35;;;;;;;10.83;9.90;;;;;;;25.72;41.90;94700.53;6163866;28;104671;-79
2022/09/11 12:56:46;;;;;;;17.10;15.80;;;;;;;25.67;41.61;94704.19;6159490;28;105351;-79
2022/09/11 12:59:54;;;;;;;19.60;18.10;;;;;;;25.65;41.76;94698.41;6164130;28;103015;-79
2022/09/11 13:02:58;;;;;;;21.07;19.37;;;;;;;25.65;40.41;94706.44;6159814;28;103403;-78
2022/09/11 13:06:05;;;;;;;21.00;19.30;;;;;;;25.65;40.97;94701.84;6168714;28;105107;-80
2022/09/11 13:09:19;;;;;;;19.40;17.87;;;;;;;25.68;40.50;94693.13;6149321;28;103393;-79
2022/09/11 13:12:48;;;;;;;19.43;17.93;;;;;;;25.69;40.44;94691.25;6161205;28;103131;-80
2022/09/11 13:15:56;;;;;;;18.40;16.80;;;;;;;25.68;40.46;94684.31;6158776;28;103480;-78
2022/09/11 13:19:02;;;;;;;16.23;14.90;;;;;;;25.67;40.23;94678.19;6158077;28;104072;-79
2022/09/11 13:22:21;;;;;;;16.20;15.00;;;;;;;25.71;40.06;94674.81;6157155;28;103964;-78
2022/09/11 13:25:26;;;;;;;14.93;13.57;;;;;;;25.77;39.88;94660.09;6155731;28;103539;-79
2022/09/11 13:28:31;;;;;;;14.80;13.53;;;;;;;25.93;39.84;94660.94;6162826;28;103015;-79
2022/09/11 13:31:36;;;;;;;15.13;14.03;;;;;;;25.92;40.01;94659.38;6154578;28;103245;-79
2022/09/11 13:34:43;;;;;;;14.83;13.50;;;;;;;25.90;39.53;94650.91;6157275;28;103107;-78
2022/09/11 13:42:01;;;;;;;12.67;11.77;;;;;;;25.84;39.76;94646.88;6134691;28;103237;-78
2022/09/11 13:45:22;;;;;;;11.57;10.77;;;;;;;25.82;39.78;94641.84;6154617;28;103368;-80
2022/09/11 13:48:54;;;;;;;11.73;10.80;;;;;;;25.82;39.66;94641.84;6153122;28;103433;-77
2022/09/11 13:52:29;;;;;;;11.30;10.40;;;;;;;25.79;39.76;94644.44;6157665;28;103143;-77
2022/09/11 13:55:56;;;;;;;10.40;9.70;;;;;;;25.79;39.27;94649.81;6147566;28;103032;-76
2022/09/11 13:59:53;;;;;;;11.70;10.90;;;;;;;25.81;39.65;94645.66;6166823;28;102992;-79
2022/09/11 14:03:06;;;;;;;10.87;9.97;;;;;;;25.77;39.31;94642.09;6138990;28;102924;-79
2022/09/11 14:06:21;;;;;;;10.50;9.70;;;;;;;25.70;39.54;94639.19;6158384;28;104361;-79
2022/09/11 14:09:39;;;;;;;10.23;9.43;;;;;;;25.73;39.26;94635.09;6159102;28;103452;-78
2022/09/11 14:13:34;;;;;;;9.63;9.03;;;;;;;25.73;39.13;94624.38;6166659;28;102942;-78
2022/09/11 14:17:00;;;;;;;9.60;8.97;;;;;;;25.79;38.59;94617.63;6167345;28;103051;-77
2022/09/11 14:20:18;;;;;;;9.30;8.63;;;;;;;25.78;38.68;94616.06;6171022;28;103168;-76
2022/09/11 14:27:44;;;;;;;9.20;8.50;;;;;;;25.84;38.16;94612.03;6168060;28;103044;-78
2022/09/11 14:34:59;;;;;;;8.23;7.63;;;;;;;25.76;38.23;94615.63;6132953;28;102821;-78
2022/09/11 14:38:08;;;;;;;8.33;7.73;;;;;;;25.74;38.35;94615.97;6161558;28;103066;-81
2022/09/11 14:41:16;;;;;;;8.77;8.17;;;;;;;25.75;38.07;94612.19;6164067;28;104506;-78
2022/09/11 14:44:54;;;;;;;7.97;7.37;;;;;;;25.72;38.33;94612.09;6176646;28;104550;-76
2022/09/11 14:48:06;;;;;;;8.23;7.33;;;;;;;25.69;38.42;94616.19;6184191;28;102838;-77
2022/09/11 14:51:37;;;;;;;8.70;8.10;;;;;;;25.62;38.16;94606.06;6108099;28;103094;-77
2022/09/11 14:54:50;;;;;;;7.20;6.70;;;;;;;25.63;38.40;94599.59;6173855;28;103096;-77
2022/09/11 14:58:09;;;;;;;7.37;6.87;;;;;;;25.63;37.52;94596.91;6179321;28;102974;-76